sensor_id;sensor_type;location;lat;lon;timestamp;P1;durP1;ratioP1;P2;durP2;ratioP2
68176;SDS011;56478;50.982;7.032;2022-12-07T00:01:20;22.73;;;14.48;;
68176;SDS011;56478;50.982;7.032;2022-12-07T00:03:56;22.67;;;14.05;;
68176;SDS011;56478;50.982;7.032;2022-12-07T00:06:28;21.90;;;14.13;;
68176;SDS011;56478;50.982;7.032;2022-12-07T00:08:54;21.75;;;13.52;;
68176;SDS011;56478;50.982;7.032;2022-12-07T00:11:20;25.80;;;13.95;;
68176;SDS011;56478;50.982;7.032;2022-12-07T00:13:51;26.67;;;13.35;;
68176;SDS011;56478;50.982;7.032;2022-12-07T00:16:21;22.45;;;14.27;;
68176;SDS011;56478;50.982;7.032;2022-12-07T00:18:48;20.63;;;13.60;;
68176;SDS011;56478;50.982;7.032;2022-12-07T00:23:41;23.42;;;14.20;;
68176;SDS011;56478;50.982;7.032;2022-12-07T00:26:08;21.02;;;13.60;;
68176;SDS011;56478;50.982;7.032;2022-12-07T00:28:39;25.80;;;13.73;;
68176;SDS011;56478;50.982;7.032;2022-12-07T00:31:06;20.90;;;13.55;;
68176;SDS011;56478;50.982;7.032;2022-12-07T00:33:34;20.88;;;13.65;;
68176;SDS011;56478;50.982;7.032;2022-12-07T00:36:00;21.23;;;13.25;;
68176;SDS011;56478;50.982;7.032;2022-12-07T00:38:30;21.27;;;13.27;;
68176;SDS011;56478;50.982;7.032;2022-12-07T00:40:57;21.95;;;13.18;;
68176;SDS011;56478;50.982;7.032;2022-12-07T00:43:27;20.38;;;13.35;;
68176;SDS011;56478;50.982;7.032;2022-12-07T00:45:53;24.73;;;14.50;;
68176;SDS011;56478;50.982;7.032;2022-12-07T00:48:19;22.35;;;13.18;;
68176;SDS011;56478;50.982;7.032;2022-12-07T00:50:46;21.35;;;14.18;;
68176;SDS011;56478;50.982;7.032;2022-12-07T00:53:12;20.92;;;14.20;;
68176;SDS011;56478;50.982;7.032;2022-12-07T00:55:38;20.65;;;13.40;;
68176;SDS011;56478;50.982;7.032;2022-12-07T00:58:04;18.63;;;13.75;;
68176;SDS011;56478;50.982;7.032;2022-12-07T01:00:30;21.63;;;13.82;;
68176;SDS011;56478;50.982;7.032;2022-12-07T01:02:56;20.27;;;13.45;;
68176;SDS011;56478;50.982;7.032;2022-12-07T01:05:21;25.50;;;13.82;;
68176;SDS011;56478;50.982;7.032;2022-12-07T01:07:47;21.70;;;13.68;;
68176;SDS011;56478;50.982;7.032;2022-12-07T01:10:13;20.13;;;14.02;;
68176;SDS011;56478;50.982;7.032;2022-12-07T01:12:39;21.50;;;13.50;;
68176;SDS011;56478;50.982;7.032;2022-12-07T01:15:05;22.15;;;13.50;;
68176;SDS011;56478;50.982;7.032;2022-12-07T01:17:31;25.17;;;14.40;;
68176;SDS011;56478;50.982;7.032;2022-12-07T01:19:57;23.23;;;14.40;;
68176;SDS011;56478;50.982;7.032;2022-12-07T01:22:22;20.50;;;13.88;;
68176;SDS011;56478;50.982;7.032;2022-12-07T01:24:48;21.67;;;14.48;;
68176;SDS011;56478;50.982;7.032;2022-12-07T01:27:14;22.95;;;14.30;;
68176;SDS011;56478;50.982;7.032;2022-12-07T01:29:39;21.52;;;13.95;;
68176;SDS011;56478;50.982;7.032;2022-12-07T01:32:05;22.60;;;14.35;;
68176;SDS011;56478;50.982;7.032;2022-12-07T01:34:30;24.08;;;13.57;;
68176;SDS011;56478;50.982;7.032;2022-12-07T01:36:56;23.00;;;13.57;;
68176;SDS011;56478;50.982;7.032;2022-12-07T01:39:22;21.23;;;13.68;;
68176;SDS011;56478;50.982;7.032;2022-12-07T01:41:48;22.85;;;14.82;;
68176;SDS011;56478;50.982;7.032;2022-12-07T01:44:18;25.85;;;14.40;;
68176;SDS011;56478;50.982;7.032;2022-12-07T01:49:15;24.27;;;14.98;;
68176;SDS011;56478;50.982;7.032;2022-12-07T01:51:45;26.38;;;14.60;;
68176;SDS011;56478;50.982;7.032;2022-12-07T01:54:12;25.75;;;14.82;;
68176;SDS011;56478;50.982;7.032;2022-12-07T01:56:42;22.95;;;14.98;;
68176;SDS011;56478;50.982;7.032;2022-12-07T01:59:12;26.33;;;15.07;;
68176;SDS011;56478;50.982;7.032;2022-12-07T02:01:38;23.65;;;15.02;;
68176;SDS011;56478;50.982;7.032;2022-12-07T02:04:04;22.42;;;14.95;;
68176;SDS011;56478;50.982;7.032;2022-12-07T02:06:31;22.88;;;14.23;;
68176;SDS011;56478;50.982;7.032;2022-12-07T02:08:56;23.52;;;14.57;;
68176;SDS011;56478;50.982;7.032;2022-12-07T02:11:22;23.67;;;14.57;;
68176;SDS011;56478;50.982;7.032;2022-12-07T02:13:48;23.23;;;15.68;;
68176;SDS011;56478;50.982;7.032;2022-12-07T02:16:23;24.38;;;14.95;;
68176;SDS011;56478;50.982;7.032;2022-12-07T02:24:19;24.77;;;15.82;;
68176;SDS011;56478;50.982;7.032;2022-12-07T02:35:08;23.98;;;15.48;;
68176;SDS011;56478;50.982;7.032;2022-12-07T02:37:51;27.15;;;15.68;;
68176;SDS011;56478;50.982;7.032;2022-12-07T02:43:21;22.60;;;14.15;;
68176;SDS011;56478;50.982;7.032;2022-12-07T02:45:51;23.25;;;14.98;;
68176;SDS011;56478;50.982;7.032;2022-12-07T02:48:20;24.08;;;15.95;;
68176;SDS011;56478;50.982;7.032;2022-12-07T02:50:49;23.45;;;15.35;;
68176;SDS011;56478;50.982;7.032;2022-12-07T02:53:35;21.45;;;15.48;;
68176;SDS011;56478;50.982;7.032;2022-12-07T02:56:04;24.48;;;15.05;;
68176;SDS011;56478;50.982;7.032;2022-12-07T03:07:06;23.63;;;14.40;;
68176;SDS011;56478;50.982;7.032;2022-12-07T03:09:51;25.17;;;15.02;;
68176;SDS011;56478;50.982;7.032;2022-12-07T03:12:28;24.23;;;14.52;;
68176;SDS011;56478;50.982;7.032;2022-12-07T03:15:08;20.95;;;14.20;;
68176;SDS011;56478;50.982;7.032;2022-12-07T03:17:47;23.65;;;15.50;;
68176;SDS011;56478;50.982;7.032;2022-12-07T03:20:15;23.08;;;15.05;;
68176;SDS011;56478;50.982;7.032;2022-12-07T03:22:45;28.98;;;15.85;;
68176;SDS011;56478;50.982;7.032;2022-12-07T03:25:13;27.92;;;16.23;;
68176;SDS011;56478;50.982;7.032;2022-12-07T03:27:50;24.52;;;16.05;;
68176;SDS011;56478;50.982;7.032;2022-12-07T03:30:24;24.05;;;15.68;;
68176;SDS011;56478;50.982;7.032;2022-12-07T03:35:49;23.42;;;15.52;;
68176;SDS011;56478;50.982;7.032;2022-12-07T03:41:14;24.48;;;15.00;;
68176;SDS011;56478;50.982;7.032;2022-12-07T03:44:00;26.48;;;16.05;;
68176;SDS011;56478;50.982;7.032;2022-12-07T03:49:16;26.55;;;16.70;;
68176;SDS011;56478;50.982;7.032;2022-12-07T03:54:54;24.73;;;15.85;;
68176;SDS011;56478;50.982;7.032;2022-12-07T03:57:25;24.85;;;16.00;;
68176;SDS011;56478;50.982;7.032;2022-12-07T03:59:53;23.17;;;15.68;;
68176;SDS011;56478;50.982;7.032;2022-12-07T04:02:20;26.65;;;16.63;;
68176;SDS011;56478;50.982;7.032;2022-12-07T04:04:47;27.80;;;16.73;;
68176;SDS011;56478;50.982;7.032;2022-12-07T04:07:12;25.52;;;17.13;;
68176;SDS011;56478;50.982;7.032;2022-12-07T04:09:38;29.00;;;17.27;;
68176;SDS011;56478;50.982;7.032;2022-12-07T04:12:03;29.83;;;17.63;;
68176;SDS011;56478;50.982;7.032;2022-12-07T04:14:29;26.30;;;16.95;;
68176;SDS011;56478;50.982;7.032;2022-12-07T04:16:55;27.35;;;16.13;;
68176;SDS011;56478;50.982;7.032;2022-12-07T04:19:23;26.15;;;16.48;;
68176;SDS011;56478;50.982;7.032;2022-12-07T04:21:53;27.40;;;17.52;;
68176;SDS011;56478;50.982;7.032;2022-12-07T04:24:20;30.08;;;17.15;;
68176;SDS011;56478;50.982;7.032;2022-12-07T04:26:45;28.70;;;17.42;;
68176;SDS011;56478;50.982;7.032;2022-12-07T04:29:11;29.45;;;16.60;;
68176;SDS011;56478;50.982;7.032;2022-12-07T04:31:37;28.35;;;16.50;;
68176;SDS011;56478;50.982;7.032;2022-12-07T04:34:03;23.08;;;15.82;;
68176;SDS011;56478;50.982;7.032;2022-12-07T04:36:30;25.80;;;16.85;;
68176;SDS011;56478;50.982;7.032;2022-12-07T04:38:56;24.67;;;15.85;;
68176;SDS011;56478;50.982;7.032;2022-12-07T04:41:22;24.90;;;16.13;;
68176;SDS011;56478;50.982;7.032;2022-12-07T04:43:55;25.45;;;15.70;;
68176;SDS011;56478;50.982;7.032;2022-12-07T04:46:22;27.50;;;17.85;;
68176;SDS011;56478;50.982;7.032;2022-12-07T04:48:48;29.55;;;17.42;;
68176;SDS011;56478;50.982;7.032;2022-12-07T04:51:15;28.95;;;16.88;;
68176;SDS011;56478;50.982;7.032;2022-12-07T04:53:44;28.30;;;15.75;;
68176;SDS011;56478;50.982;7.032;2022-12-07T04:56:10;33.63;;;16.73;;
68176;SDS011;56478;50.982;7.032;2022-12-07T04:58:35;28.17;;;16.65;;
68176;SDS011;56478;50.982;7.032;2022-12-07T05:01:01;32.15;;;16.85;;
68176;SDS011;56478;50.982;7.032;2022-12-07T05:03:26;27.13;;;16.63;;
68176;SDS011;56478;50.982;7.032;2022-12-07T05:05:51;26.90;;;16.08;;
68176;SDS011;56478;50.982;7.032;2022-12-07T05:08:17;26.65;;;16.17;;
68176;SDS011;56478;50.982;7.032;2022-12-07T05:10:42;27.73;;;16.33;;
68176;SDS011;56478;50.982;7.032;2022-12-07T05:13:08;28.67;;;16.13;;
68176;SDS011;56478;50.982;7.032;2022-12-07T05:15:33;29.63;;;16.42;;
68176;SDS011;56478;50.982;7.032;2022-12-07T05:17:59;27.70;;;16.35;;
68176;SDS011;56478;50.982;7.032;2022-12-07T05:20:24;23.65;;;16.52;;
68176;SDS011;56478;50.982;7.032;2022-12-07T05:22:50;28.10;;;17.48;;
68176;SDS011;56478;50.982;7.032;2022-12-07T05:25:15;28.55;;;16.73;;
68176;SDS011;56478;50.982;7.032;2022-12-07T05:27:40;31.13;;;17.15;;
68176;SDS011;56478;50.982;7.032;2022-12-07T05:30:06;30.40;;;17.17;;
68176;SDS011;56478;50.982;7.032;2022-12-07T05:32:32;30.60;;;16.73;;
68176;SDS011;56478;50.982;7.032;2022-12-07T05:34:58;26.63;;;16.55;;
68176;SDS011;56478;50.982;7.032;2022-12-07T05:37:23;25.55;;;15.95;;
68176;SDS011;56478;50.982;7.032;2022-12-07T05:39:48;29.70;;;16.48;;
68176;SDS011;56478;50.982;7.032;2022-12-07T05:42:14;27.63;;;16.38;;
68176;SDS011;56478;50.982;7.032;2022-12-07T05:44:40;27.80;;;16.50;;
68176;SDS011;56478;50.982;7.032;2022-12-07T05:47:06;26.63;;;16.30;;
68176;SDS011;56478;50.982;7.032;2022-12-07T05:49:32;26.88;;;16.10;;
68176;SDS011;56478;50.982;7.032;2022-12-07T05:51:57;24.80;;;16.30;;
68176;SDS011;56478;50.982;7.032;2022-12-07T05:54:23;25.25;;;16.95;;
68176;SDS011;56478;50.982;7.032;2022-12-07T05:56:49;27.17;;;16.38;;
68176;SDS011;56478;50.982;7.032;2022-12-07T05:59:14;28.17;;;17.48;;
68176;SDS011;56478;50.982;7.032;2022-12-07T06:01:50;26.08;;;16.17;;
68176;SDS011;56478;50.982;7.032;2022-12-07T06:04:22;22.40;;;14.95;;
68176;SDS011;56478;50.982;7.032;2022-12-07T06:06:48;28.38;;;16.13;;
68176;SDS011;56478;50.982;7.032;2022-12-07T06:09:14;24.42;;;15.77;;
68176;SDS011;56478;50.982;7.032;2022-12-07T06:11:40;28.05;;;15.82;;
68176;SDS011;56478;50.982;7.032;2022-12-07T06:14:24;24.42;;;14.77;;
68176;SDS011;56478;50.982;7.032;2022-12-07T06:16:50;26.50;;;15.55;;
68176;SDS011;56478;50.982;7.032;2022-12-07T06:19:16;25.05;;;15.45;;
68176;SDS011;56478;50.982;7.032;2022-12-07T06:21:42;29.92;;;16.58;;
68176;SDS011;56478;50.982;7.032;2022-12-07T06:24:08;27.80;;;16.30;;
68176;SDS011;56478;50.982;7.032;2022-12-07T06:26:36;23.70;;;14.57;;
68176;SDS011;56478;50.982;7.032;2022-12-07T06:29:01;23.95;;;14.98;;
68176;SDS011;56478;50.982;7.032;2022-12-07T06:31:27;23.95;;;14.95;;
68176;SDS011;56478;50.982;7.032;2022-12-07T06:33:56;24.58;;;15.05;;
68176;SDS011;56478;50.982;7.032;2022-12-07T06:36:25;21.08;;;14.43;;
68176;SDS011;56478;50.982;7.032;2022-12-07T06:38:51;23.92;;;14.88;;
68176;SDS011;56478;50.982;7.032;2022-12-07T06:41:17;21.48;;;15.05;;
68176;SDS011;56478;50.982;7.032;2022-12-07T06:43:42;23.67;;;13.70;;
68176;SDS011;56478;50.982;7.032;2022-12-07T06:46:09;20.85;;;13.73;;
68176;SDS011;56478;50.982;7.032;2022-12-07T06:48:34;24.00;;;15.15;;
68176;SDS011;56478;50.982;7.032;2022-12-07T06:51:00;22.52;;;14.75;;
68176;SDS011;56478;50.982;7.032;2022-12-07T06:53:25;23.88;;;14.82;;
68176;SDS011;56478;50.982;7.032;2022-12-07T06:55:51;25.65;;;14.25;;
68176;SDS011;56478;50.982;7.032;2022-12-07T06:58:16;19.10;;;14.07;;
68176;SDS011;56478;50.982;7.032;2022-12-07T07:00:43;23.15;;;14.88;;
68176;SDS011;56478;50.982;7.032;2022-12-07T07:03:09;20.85;;;14.15;;
68176;SDS011;56478;50.982;7.032;2022-12-07T07:05:35;26.05;;;14.93;;
68176;SDS011;56478;50.982;7.032;2022-12-07T07:08:00;21.13;;;14.25;;
68176;SDS011;56478;50.982;7.032;2022-12-07T07:10:26;24.45;;;15.13;;
68176;SDS011;56478;50.982;7.032;2022-12-07T07:12:52;23.70;;;15.07;;
68176;SDS011;56478;50.982;7.032;2022-12-07T07:15:17;25.33;;;15.25;;
68176;SDS011;56478;50.982;7.032;2022-12-07T07:17:43;20.63;;;14.88;;
68176;SDS011;56478;50.982;7.032;2022-12-07T07:20:08;24.85;;;14.50;;
68176;SDS011;56478;50.982;7.032;2022-12-07T07:22:34;22.35;;;14.07;;
68176;SDS011;56478;50.982;7.032;2022-12-07T07:24:59;20.92;;;13.68;;
68176;SDS011;56478;50.982;7.032;2022-12-07T07:27:25;19.95;;;13.55;;
68176;SDS011;56478;50.982;7.032;2022-12-07T07:29:50;27.38;;;14.73;;
68176;SDS011;56478;50.982;7.032;2022-12-07T07:32:16;21.38;;;14.73;;
68176;SDS011;56478;50.982;7.032;2022-12-07T07:34:41;22.10;;;15.13;;
68176;SDS011;56478;50.982;7.032;2022-12-07T07:37:06;25.02;;;15.75;;
68176;SDS011;56478;50.982;7.032;2022-12-07T07:39:32;25.55;;;15.40;;
68176;SDS011;56478;50.982;7.032;2022-12-07T07:41:57;24.85;;;15.77;;
68176;SDS011;56478;50.982;7.032;2022-12-07T07:44:23;26.27;;;14.80;;
68176;SDS011;56478;50.982;7.032;2022-12-07T07:46:48;22.65;;;15.15;;
68176;SDS011;56478;50.982;7.032;2022-12-07T07:49:13;25.95;;;15.57;;
68176;SDS011;56478;50.982;7.032;2022-12-07T07:51:39;23.70;;;15.70;;
68176;SDS011;56478;50.982;7.032;2022-12-07T07:54:04;25.42;;;14.70;;
68176;SDS011;56478;50.982;7.032;2022-12-07T07:56:30;22.48;;;14.75;;
68176;SDS011;56478;50.982;7.032;2022-12-07T07:58:55;25.30;;;15.48;;
68176;SDS011;56478;50.982;7.032;2022-12-07T08:01:21;24.77;;;14.85;;
68176;SDS011;56478;50.982;7.032;2022-12-07T08:03:46;24.90;;;15.88;;
68176;SDS011;56478;50.982;7.032;2022-12-07T08:06:12;22.45;;;14.55;;
68176;SDS011;56478;50.982;7.032;2022-12-07T08:08:37;23.20;;;14.63;;
68176;SDS011;56478;50.982;7.032;2022-12-07T08:11:06;24.15;;;14.45;;
68176;SDS011;56478;50.982;7.032;2022-12-07T08:13:33;25.63;;;15.70;;
68176;SDS011;56478;50.982;7.032;2022-12-07T08:16:02;26.85;;;15.38;;
68176;SDS011;56478;50.982;7.032;2022-12-07T08:18:29;25.75;;;15.57;;
68176;SDS011;56478;50.982;7.032;2022-12-07T08:20:58;23.55;;;15.77;;
68176;SDS011;56478;50.982;7.032;2022-12-07T08:23:28;25.30;;;15.05;;
68176;SDS011;56478;50.982;7.032;2022-12-07T08:25:54;27.40;;;15.80;;
68176;SDS011;56478;50.982;7.032;2022-12-07T08:28:19;24.48;;;15.98;;
68176;SDS011;56478;50.982;7.032;2022-12-07T08:30:45;25.30;;;15.23;;
68176;SDS011;56478;50.982;7.032;2022-12-07T08:33:10;22.30;;;15.25;;
68176;SDS011;56478;50.982;7.032;2022-12-07T08:35:36;25.83;;;15.35;;
68176;SDS011;56478;50.982;7.032;2022-12-07T08:38:02;23.38;;;14.55;;
68176;SDS011;56478;50.982;7.032;2022-12-07T08:40:28;23.42;;;14.73;;
68176;SDS011;56478;50.982;7.032;2022-12-07T08:42:54;21.00;;;15.43;;
68176;SDS011;56478;50.982;7.032;2022-12-07T08:45:20;26.65;;;15.93;;
68176;SDS011;56478;50.982;7.032;2022-12-07T08:47:48;26.20;;;16.20;;
68176;SDS011;56478;50.982;7.032;2022-12-07T08:50:15;23.45;;;14.85;;
68176;SDS011;56478;50.982;7.032;2022-12-07T08:52:41;24.67;;;15.10;;
68176;SDS011;56478;50.982;7.032;2022-12-07T08:55:23;26.20;;;15.65;;
68176;SDS011;56478;50.982;7.032;2022-12-07T08:57:49;18.90;;;14.48;;
68176;SDS011;56478;50.982;7.032;2022-12-07T09:00:15;23.08;;;14.77;;
68176;SDS011;56478;50.982;7.032;2022-12-07T09:02:44;23.02;;;14.43;;
68176;SDS011;56478;50.982;7.032;2022-12-07T09:05:10;21.98;;;13.95;;
68176;SDS011;56478;50.982;7.032;2022-12-07T09:07:36;23.67;;;15.00;;
68176;SDS011;56478;50.982;7.032;2022-12-07T09:10:03;19.52;;;12.73;;
68176;SDS011;56478;50.982;7.032;2022-12-07T09:12:29;19.20;;;13.63;;
68176;SDS011;56478;50.982;7.032;2022-12-07T09:14:55;20.67;;;12.73;;
68176;SDS011;56478;50.982;7.032;2022-12-07T09:17:20;16.85;;;12.07;;
68176;SDS011;56478;50.982;7.032;2022-12-07T09:19:46;16.55;;;11.65;;
68176;SDS011;56478;50.982;7.032;2022-12-07T09:22:12;16.83;;;12.07;;
68176;SDS011;56478;50.982;7.032;2022-12-07T09:24:38;18.38;;;11.75;;
68176;SDS011;56478;50.982;7.032;2022-12-07T09:27:03;18.58;;;11.52;;
68176;SDS011;56478;50.982;7.032;2022-12-07T09:29:29;16.83;;;10.90;;
68176;SDS011;56478;50.982;7.032;2022-12-07T09:31:55;17.48;;;11.60;;
68176;SDS011;56478;50.982;7.032;2022-12-07T09:34:20;17.30;;;10.95;;
68176;SDS011;56478;50.982;7.032;2022-12-07T09:36:46;14.15;;;11.18;;
68176;SDS011;56478;50.982;7.032;2022-12-07T09:39:12;17.10;;;10.35;;
68176;SDS011;56478;50.982;7.032;2022-12-07T09:41:41;19.65;;;11.57;;
68176;SDS011;56478;50.982;7.032;2022-12-07T09:44:13;16.50;;;10.93;;
68176;SDS011;56478;50.982;7.032;2022-12-07T09:46:49;15.23;;;10.50;;
68176;SDS011;56478;50.982;7.032;2022-12-07T09:49:24;13.00;;;10.27;;
68176;SDS011;56478;50.982;7.032;2022-12-07T09:52:03;16.33;;;10.68;;
68176;SDS011;56478;50.982;7.032;2022-12-07T09:54:52;14.55;;;10.10;;
68176;SDS011;56478;50.982;7.032;2022-12-07T09:57:19;17.45;;;10.57;;
68176;SDS011;56478;50.982;7.032;2022-12-07T09:59:56;16.30;;;10.65;;
68176;SDS011;56478;50.982;7.032;2022-12-07T10:02:39;14.07;;;9.48;;
68176;SDS011;56478;50.982;7.032;2022-12-07T10:05:10;15.23;;;10.43;;
68176;SDS011;56478;50.982;7.032;2022-12-07T10:07:40;17.17;;;9.65;;
68176;SDS011;56478;50.982;7.032;2022-12-07T10:10:06;14.73;;;9.82;;
68176;SDS011;56478;50.982;7.032;2022-12-07T10:12:54;16.05;;;9.45;;
68176;SDS011;56478;50.982;7.032;2022-12-07T10:15:19;12.52;;;9.40;;
68176;SDS011;56478;50.982;7.032;2022-12-07T10:17:49;13.20;;;9.30;;
68176;SDS011;56478;50.982;7.032;2022-12-07T10:22:55;17.25;;;9.90;;
68176;SDS011;56478;50.982;7.032;2022-12-07T10:25:22;14.60;;;9.75;;
68176;SDS011;56478;50.982;7.032;2022-12-07T10:27:57;15.57;;;10.07;;
68176;SDS011;56478;50.982;7.032;2022-12-07T10:30:32;17.92;;;9.40;;
68176;SDS011;56478;50.982;7.032;2022-12-07T10:32:58;18.05;;;10.00;;
68176;SDS011;56478;50.982;7.032;2022-12-07T10:35:28;13.35;;;9.30;;
68176;SDS011;56478;50.982;7.032;2022-12-07T10:37:55;16.27;;;8.57;;
68176;SDS011;56478;50.982;7.032;2022-12-07T10:40:30;14.77;;;9.15;;
68176;SDS011;56478;50.982;7.032;2022-12-07T10:43:15;13.88;;;9.32;;
68176;SDS011;56478;50.982;7.032;2022-12-07T10:51:09;12.68;;;8.32;;
68176;SDS011;56478;50.982;7.032;2022-12-07T10:56:49;13.80;;;8.30;;
68176;SDS011;56478;50.982;7.032;2022-12-07T11:10:59;14.15;;;8.70;;
68176;SDS011;56478;50.982;7.032;2022-12-07T11:42:10;14.38;;;8.00;;
68176;SDS011;56478;50.982;7.032;2022-12-07T11:44:55;11.57;;;7.38;;
68176;SDS011;56478;50.982;7.032;2022-12-07T11:47:38;15.75;;;8.05;;
68176;SDS011;56478;50.982;7.032;2022-12-07T11:50:56;11.95;;;6.68;;
68176;SDS011;56478;50.982;7.032;2022-12-07T12:03:45;10.55;;;6.00;;
68176;SDS011;56478;50.982;7.032;2022-12-07T12:06:13;13.18;;;6.10;;
68176;SDS011;56478;50.982;7.032;2022-12-07T12:08:44;10.05;;;6.55;;
68176;SDS011;56478;50.982;7.032;2022-12-07T12:17:10;14.15;;;5.32;;
68176;SDS011;56478;50.982;7.032;2022-12-07T12:19:57;12.18;;;5.65;;
68176;SDS011;56478;50.982;7.032;2022-12-07T12:22:43;11.95;;;6.82;;
68176;SDS011;56478;50.982;7.032;2022-12-07T12:25:28;9.20;;;6.03;;
68176;SDS011;56478;50.982;7.032;2022-12-07T12:27:57;12.85;;;5.93;;
68176;SDS011;56478;50.982;7.032;2022-12-07T12:30:37;12.05;;;5.85;;
68176;SDS011;56478;50.982;7.032;2022-12-07T12:33:22;11.98;;;6.05;;
68176;SDS011;56478;50.982;7.032;2022-12-07T12:38:48;11.52;;;6.68;;
68176;SDS011;56478;50.982;7.032;2022-12-07T12:46:46;11.48;;;6.32;;
68176;SDS011;56478;50.982;7.032;2022-12-07T12:51:50;11.10;;;6.65;;
68176;SDS011;56478;50.982;7.032;2022-12-07T12:55:01;9.77;;;6.40;;
68176;SDS011;56478;50.982;7.032;2022-12-07T12:57:37;10.73;;;6.30;;
68176;SDS011;56478;50.982;7.032;2022-12-07T13:00:15;11.10;;;6.72;;
68176;SDS011;56478;50.982;7.032;2022-12-07T13:02:55;10.95;;;6.53;;
68176;SDS011;56478;50.982;7.032;2022-12-07T13:05:27;13.30;;;7.47;;
68176;SDS011;56478;50.982;7.032;2022-12-07T13:20:57;16.70;;;7.68;;
68176;SDS011;56478;50.982;7.032;2022-12-07T13:28:44;15.33;;;8.60;;
68176;SDS011;56478;50.982;7.032;2022-12-07T13:31:27;11.27;;;7.55;;
68176;SDS011;56478;50.982;7.032;2022-12-07T13:34:04;11.95;;;7.05;;
68176;SDS011;56478;50.982;7.032;2022-12-07T13:36:49;11.70;;;7.38;;
68176;SDS011;56478;50.982;7.032;2022-12-07T13:39:18;12.20;;;7.20;;
68176;SDS011;56478;50.982;7.032;2022-12-07T13:41:49;12.20;;;7.75;;
68176;SDS011;56478;50.982;7.032;2022-12-07T13:44:17;12.40;;;7.50;;
68176;SDS011;56478;50.982;7.032;2022-12-07T13:46:51;13.98;;;7.50;;
68176;SDS011;56478;50.982;7.032;2022-12-07T13:49:24;15.40;;;7.07;;
68176;SDS011;56478;50.982;7.032;2022-12-07T13:57:27;14.68;;;7.35;;
68176;SDS011;56478;50.982;7.032;2022-12-07T13:59:55;12.68;;;7.47;;
68176;SDS011;56478;50.982;7.032;2022-12-07T14:02:31;14.70;;;7.68;;
68176;SDS011;56478;50.982;7.032;2022-12-07T14:07:47;14.68;;;7.72;;
68176;SDS011;56478;50.982;7.032;2022-12-07T14:10:36;19.92;;;8.00;;
68176;SDS011;56478;50.982;7.032;2022-12-07T14:16:01;12.35;;;7.43;;
68176;SDS011;56478;50.982;7.032;2022-12-07T14:18:29;16.15;;;8.23;;
68176;SDS011;56478;50.982;7.032;2022-12-07T14:21:05;16.02;;;7.70;;
68176;SDS011;56478;50.982;7.032;2022-12-07T14:24:07;16.58;;;8.07;;
68176;SDS011;56478;50.982;7.032;2022-12-07T14:26:40;14.70;;;7.78;;
68176;SDS011;56478;50.982;7.032;2022-12-07T14:31:55;12.90;;;7.40;;
68176;SDS011;56478;50.982;7.032;2022-12-07T14:38:07;13.38;;;7.43;;
68176;SDS011;56478;50.982;7.032;2022-12-07T14:40:49;14.65;;;8.18;;
68176;SDS011;56478;50.982;7.032;2022-12-07T14:43:15;14.73;;;7.65;;
68176;SDS011;56478;50.982;7.032;2022-12-07T14:45:50;14.57;;;7.03;;
68176;SDS011;56478;50.982;7.032;2022-12-07T14:48:16;12.70;;;7.65;;
68176;SDS011;56478;50.982;7.032;2022-12-07T14:50:51;11.93;;;7.30;;
68176;SDS011;56478;50.982;7.032;2022-12-07T14:53:18;12.85;;;7.47;;
68176;SDS011;56478;50.982;7.032;2022-12-07T14:55:49;14.05;;;7.30;;
68176;SDS011;56478;50.982;7.032;2022-12-07T14:58:15;12.02;;;7.82;;
68176;SDS011;56478;50.982;7.032;2022-12-07T15:00:42;11.27;;;7.40;;
68176;SDS011;56478;50.982;7.032;2022-12-07T15:03:07;12.63;;;7.43;;
68176;SDS011;56478;50.982;7.032;2022-12-07T15:05:33;12.02;;;7.55;;
68176;SDS011;56478;50.982;7.032;2022-12-07T15:07:59;11.40;;;7.28;;
68176;SDS011;56478;50.982;7.032;2022-12-07T15:10:26;11.73;;;6.97;;
68176;SDS011;56478;50.982;7.032;2022-12-07T15:12:57;12.77;;;6.97;;
68176;SDS011;56478;50.982;7.032;2022-12-07T15:15:42;13.05;;;7.32;;
68176;SDS011;56478;50.982;7.032;2022-12-07T15:18:08;12.65;;;6.97;;
68176;SDS011;56478;50.982;7.032;2022-12-07T15:20:33;14.32;;;8.07;;
68176;SDS011;56478;50.982;7.032;2022-12-07T15:23:00;15.18;;;8.68;;
68176;SDS011;56478;50.982;7.032;2022-12-07T15:25:25;13.88;;;8.27;;
68176;SDS011;56478;50.982;7.032;2022-12-07T15:27:51;17.23;;;8.27;;
68176;SDS011;56478;50.982;7.032;2022-12-07T15:30:16;12.15;;;7.88;;
68176;SDS011;56478;50.982;7.032;2022-12-07T15:32:42;14.07;;;8.10;;
68176;SDS011;56478;50.982;7.032;2022-12-07T15:35:07;11.90;;;6.78;;
68176;SDS011;56478;50.982;7.032;2022-12-07T15:37:33;8.27;;;5.22;;
68176;SDS011;56478;50.982;7.032;2022-12-07T15:39:59;6.97;;;4.80;;
68176;SDS011;56478;50.982;7.032;2022-12-07T15:42:26;9.07;;;4.45;;
68176;SDS011;56478;50.982;7.032;2022-12-07T15:44:51;5.93;;;3.90;;
68176;SDS011;56478;50.982;7.032;2022-12-07T15:47:34;5.70;;;3.63;;
68176;SDS011;56478;50.982;7.032;2022-12-07T15:50:02;5.13;;;3.67;;
68176;SDS011;56478;50.982;7.032;2022-12-07T15:52:31;4.20;;;3.15;;
68176;SDS011;56478;50.982;7.032;2022-12-07T15:54:57;7.32;;;3.25;;
68176;SDS011;56478;50.982;7.032;2022-12-07T15:57:24;7.43;;;3.50;;
68176;SDS011;56478;50.982;7.032;2022-12-07T15:59:51;5.10;;;3.63;;
68176;SDS011;56478;50.982;7.032;2022-12-07T16:02:16;8.57;;;3.53;;
68176;SDS011;56478;50.982;7.032;2022-12-07T16:04:42;6.10;;;3.45;;
68176;SDS011;56478;50.982;7.032;2022-12-07T16:07:07;6.07;;;4.05;;
68176;SDS011;56478;50.982;7.032;2022-12-07T16:09:33;5.22;;;4.10;;
68176;SDS011;56478;50.982;7.032;2022-12-07T16:11:59;6.70;;;4.20;;
68176;SDS011;56478;50.982;7.032;2022-12-07T16:14:25;5.50;;;4.93;;
68176;SDS011;56478;50.982;7.032;2022-12-07T16:16:50;6.00;;;4.80;;
68176;SDS011;56478;50.982;7.032;2022-12-07T16:19:16;10.32;;;5.60;;
68176;SDS011;56478;50.982;7.032;2022-12-07T16:21:42;9.45;;;5.68;;
68176;SDS011;56478;50.982;7.032;2022-12-07T16:24:07;7.82;;;5.63;;
68176;SDS011;56478;50.982;7.032;2022-12-07T16:26:33;8.85;;;5.90;;
68176;SDS011;56478;50.982;7.032;2022-12-07T16:28:59;10.35;;;6.07;;
68176;SDS011;56478;50.982;7.032;2022-12-07T16:31:25;7.57;;;6.15;;
68176;SDS011;56478;50.982;7.032;2022-12-07T16:33:54;12.15;;;7.38;;
68176;SDS011;56478;50.982;7.032;2022-12-07T16:36:21;11.73;;;6.90;;
68176;SDS011;56478;50.982;7.032;2022-12-07T16:38:47;9.02;;;6.93;;
68176;SDS011;56478;50.982;7.032;2022-12-07T16:41:13;12.70;;;7.68;;
68176;SDS011;56478;50.982;7.032;2022-12-07T16:43:39;10.82;;;7.18;;
68176;SDS011;56478;50.982;7.032;2022-12-07T16:46:05;16.17;;;7.43;;
68176;SDS011;56478;50.982;7.032;2022-12-07T16:48:31;13.90;;;7.65;;
68176;SDS011;56478;50.982;7.032;2022-12-07T16:51:00;10.32;;;7.22;;
68176;SDS011;56478;50.982;7.032;2022-12-07T16:53:29;10.23;;;7.70;;
68176;SDS011;56478;50.982;7.032;2022-12-07T16:55:54;11.30;;;7.25;;
68176;SDS011;56478;50.982;7.032;2022-12-07T16:58:20;9.13;;;7.35;;
68176;SDS011;56478;50.982;7.032;2022-12-07T17:00:45;11.70;;;7.80;;
68176;SDS011;56478;50.982;7.032;2022-12-07T17:03:11;11.18;;;7.40;;
68176;SDS011;56478;50.982;7.032;2022-12-07T17:05:37;8.38;;;7.13;;
68176;SDS011;56478;50.982;7.032;2022-12-07T17:08:07;11.90;;;7.80;;
68176;SDS011;56478;50.982;7.032;2022-12-07T17:10:34;11.65;;;8.13;;
68176;SDS011;56478;50.982;7.032;2022-12-07T17:13:02;12.30;;;8.05;;